Ever Ulysses — 9V7962 — position and weather

sailwx.info

Track history (hours):
 
Tides and Currents Weather Stations Pressure Air Temp Water Temp Dewpoint Dewpoint Depression Visibility Wind Speed Wind Dir Waves Ship Positions

Ever Ulysses

Last reported at 2017-Feb-14 23:25 UTC. Time now 2017-Feb-19 17:00 UTC.
Position N 33°36' E 122°53'.

Length 285 m; draft 8.9 m.

Type: Ship. MMSI: 564442000.

Date/timePositionNaut miles runAvg speedWind from/ knotsBaromVisibWave heightAir tempDewpointWater temp
2017-Feb-14 23:25N 33°36' E 122°53'1213.5
2017-Feb-14 22:33N 33°25' E 122°53'1513.9
2017-Feb-14 21:27N 33°09' E 122°55'1314.7
2017-Feb-14 20:33N 32°56' E 122°53'1514.7
2017-Feb-14 19:33N 32°41' E 122°54'1515.0
2017-Feb-14 18:33N 32°27' E 122°56'1615.4
2017-Feb-14 17:33N 32°11' E 122°56'1515.2
2017-Feb-14 16:33N 31°56' E 122°56'1515.0
2017-Feb-14 15:33N 31°41' E 122°56'1514.8
2017-Feb-14 14:33N 31°26' E 122°57'1414.1
2017-Feb-14 13:33N 31°12' E 122°58'1413.5
2017-Feb-14 12:33N 30°59' E 122°60'3510.1
2017-Feb-14 09:04N 30°28' E 122°40'915.6
2017-Feb-14 08:29N 30°31' E 122°29'1514.5
2017-Feb-14 07:27N 30°33' E 122°12'8 1.3
2017-Feb-14 01:32N 30°37' E 122°04'7 7.1
2017-Feb-14 00:33N 30°34' E 122°12'1010.2
2017-Feb-13 23:33N 30°32' E 122°23'9 9.5
2017-Feb-13 22:34N 30°30' E 122°34'5 4.2
2017-Feb-13 21:28N 30°26' E 122°34'0 0.0
2017-Feb-13 13:28N 30°26' E 122°34'0 0.1
2017-Feb-13 11:25N 30°26' E 122°34'0 0.0
2017-Feb-13 10:31N 30°26' E 122°34'0 0.0
2017-Feb-13 02:31N 30°26' E 122°34'0 0.1
2017-Feb-13 01:16N 30°26' E 122°34'0 0.1
2017-Feb-12 23:31N 30°26' E 122°34'0 0.0
2017-Feb-12 22:10N 30°26' E 122°34'0 0.4
2017-Feb-12 21:33N 30°26' E 122°35'9 8.6
2017-Feb-12 20:32N 30°24' E 122°44'  
2017-Feb-10 15:31N 22°54' E 119°56'1415.1
2017-Feb-10 14:33N 22°40' E 119°59'1414.4
2017-Feb-10 13:33N 22°33' E 120°13'6 5.2
2017-Feb-10 12:25N 22°33' E 120°19'0 0.0
2017-Feb-10 11:31N 22°33' E 120°19'0 0.0
2017-Feb-10 10:31N 22°33' E 120°19'0 0.0
2017-Feb-10 09:32N 22°33' E 120°19'0 0.0
2017-Feb-10 08:31N 22°33' E 120°19'0 0.0
2017-Feb-10 07:29N 22°33' E 120°19'0 0.0
2017-Feb-10 06:29N 22°33' E 120°19'0 0.0
2017-Feb-10 05:29N 22°33' E 120°19'0 0.0
2017-Feb-10 04:32N 22°33' E 120°19'0 0.0
2017-Feb-10 03:32N 22°33' E 120°19'0 0.0
2017-Feb-10 02:32N 22°33' E 120°19'0 0.0
2017-Feb-10 01:32N 22°33' E 120°19'3 3.2
2017-Feb-10 00:33N 22°32' E 120°16'2 2.5
2017-Feb-09 23:33N 22°32' E 120°13'5 5.0
2017-Feb-09 22:33N 22°31' E 120°08'9 9.0
2017-Feb-09 21:33N 22°29' E 119°58'  
Track history (hours):
 
Tides and Currents Weather Stations Pressure Air Temp Water Temp Dewpoint Dewpoint Depression Visibility Wind Speed Wind Dir Waves Ship Positions

Ever Ulysses

Last reported at 2017-Feb-14 23:25 UTC. Time now 2017-Feb-19 17:00 UTC.
Position N 33°36' E 122°53'.

Length 285 m; draft 8.9 m.

Type: Ship. MMSI: 564442000.

Date/timePositionNaut miles runAvg speedWind from/ knotsBaromVisibWave heightAir tempDewpointWater temp
2017-Feb-14 23:25N 33°36' E 122°53'1213.5
2017-Feb-14 22:33N 33°25' E 122°53'1513.9
2017-Feb-14 21:27N 33°09' E 122°55'1314.7
2017-Feb-14 20:33N 32°56' E 122°53'1514.7
2017-Feb-14 19:33N 32°41' E 122°54'1515.0
2017-Feb-14 18:33N 32°27' E 122°56'1615.4
2017-Feb-14 17:33N 32°11' E 122°56'1515.2
2017-Feb-14 16:33N 31°56' E 122°56'1515.0
2017-Feb-14 15:33N 31°41' E 122°56'1514.8
2017-Feb-14 14:33N 31°26' E 122°57'1414.1
2017-Feb-14 13:33N 31°12' E 122°58'1413.5
2017-Feb-14 12:33N 30°59' E 122°60'3510.1
2017-Feb-14 09:04N 30°28' E 122°40'915.6
2017-Feb-14 08:29N 30°31' E 122°29'1514.5
2017-Feb-14 07:27N 30°33' E 122°12'8 1.3
2017-Feb-14 01:32N 30°37' E 122°04'7 7.1
2017-Feb-14 00:33N 30°34' E 122°12'1010.2
2017-Feb-13 23:33N 30°32' E 122°23'9 9.5
2017-Feb-13 22:34N 30°30' E 122°34'5 4.2
2017-Feb-13 21:28N 30°26' E 122°34'0 0.0
2017-Feb-13 13:28N 30°26' E 122°34'0 0.1
2017-Feb-13 11:25N 30°26' E 122°34'0 0.0
2017-Feb-13 10:31N 30°26' E 122°34'0 0.0
2017-Feb-13 02:31N 30°26' E 122°34'0 0.1
2017-Feb-13 01:16N 30°26' E 122°34'0 0.1
2017-Feb-12 23:31N 30°26' E 122°34'0 0.0
2017-Feb-12 22:10N 30°26' E 122°34'0 0.4
2017-Feb-12 21:33N 30°26' E 122°35'9 8.6
2017-Feb-12 20:32N 30°24' E 122°44'  
2017-Feb-10 15:31N 22°54' E 119°56'1415.1
2017-Feb-10 14:33N 22°40' E 119°59'1414.4
2017-Feb-10 13:33N 22°33' E 120°13'6 5.2
2017-Feb-10 12:25N 22°33' E 120°19'0 0.0
2017-Feb-10 11:31N 22°33' E 120°19'0 0.0
2017-Feb-10 10:31N 22°33' E 120°19'0 0.0
2017-Feb-10 09:32N 22°33' E 120°19'0 0.0
2017-Feb-10 08:31N 22°33' E 120°19'0 0.0
2017-Feb-10 07:29N 22°33' E 120°19'0 0.0
2017-Feb-10 06:29N 22°33' E 120°19'0 0.0
2017-Feb-10 05:29N 22°33' E 120°19'0 0.0
2017-Feb-10 04:32N 22°33' E 120°19'0 0.0
2017-Feb-10 03:32N 22°33' E 120°19'0 0.0
2017-Feb-10 02:32N 22°33' E 120°19'0 0.0
2017-Feb-10 01:32N 22°33' E 120°19'3 3.2
2017-Feb-10 00:33N 22°32' E 120°16'2 2.5
2017-Feb-09 23:33N 22°32' E 120°13'5 5.0
2017-Feb-09 22:33N 22°31' E 120°08'9 9.0
2017-Feb-09 21:33N 22°29' E 119°58'  

Dump ship's entire track history